sensor_id;sensor_type;location;lat;lon;timestamp;pressure;altitude;pressure_sealevel;temperature;humidity
38038;BME280;23843;51.320;12.340;2023-04-01T04:30:26;98610.22;;;10.18;100.00
38038;BME280;23843;51.320;12.340;2023-04-01T04:32:53;98616.59;;;10.16;100.00
38038;BME280;23843;51.320;12.340;2023-04-01T04:35:18;98619.34;;;10.14;100.00
38038;BME280;23843;51.320;12.340;2023-04-01T04:37:47;98622.00;;;10.14;100.00
38038;BME280;23843;51.320;12.340;2023-04-01T04:40:12;98620.34;;;10.13;100.00
38038;BME280;23843;51.320;12.340;2023-04-01T04:42:38;98622.88;;;10.15;100.00
38038;BME280;23843;51.320;12.340;2023-04-01T04:45:04;98623.97;;;10.12;100.00
38038;BME280;23843;51.320;12.340;2023-04-01T04:47:31;98630.09;;;10.13;100.00
38038;BME280;23843;51.320;12.340;2023-04-01T04:49:56;98627.28;;;10.14;100.00
38038;BME280;23843;51.320;12.340;2023-04-01T04:52:22;98632.59;;;10.14;100.00
38038;BME280;23843;51.320;12.340;2023-04-01T04:54:47;98636.09;;;10.15;100.00
38038;BME280;23843;51.320;12.340;2023-04-01T04:57:13;98635.97;;;10.16;100.00
38038;BME280;23843;51.320;12.340;2023-04-01T04:59:38;98632.38;;;10.17;100.00
38038;BME280;23843;51.320;12.340;2023-04-01T05:02:04;98629.94;;;10.14;100.00
38038;BME280;23843;51.320;12.340;2023-04-01T05:04:34;98632.59;;;10.14;100.00
38038;BME280;23843;51.320;12.340;2023-04-01T05:06:59;98626.34;;;10.15;100.00
38038;BME280;23843;51.320;12.340;2023-04-01T05:09:25;98633.47;;;10.15;100.00
38038;BME280;23843;51.320;12.340;2023-04-01T05:11:50;98632.38;;;10.17;100.00
38038;BME280;23843;51.320;12.340;2023-04-01T05:14:16;98636.78;;;10.17;100.00
38038;BME280;23843;51.320;12.340;2023-04-01T05:16:42;98639.31;;;10.18;100.00
38038;BME280;23843;51.320;12.340;2023-04-01T05:19:07;98639.31;;;10.18;100.00
38038;BME280;23843;51.320;12.340;2023-04-01T05:21:34;98641.03;;;10.19;100.00
38038;BME280;23843;51.320;12.340;2023-04-01T05:24:00;98645.81;;;10.25;100.00
38038;BME280;23843;51.320;12.340;2023-04-01T05:26:25;98646.47;;;10.29;100.00
38038;BME280;23843;51.320;12.340;2023-04-01T05:28:50;98642.59;;;10.33;100.00
38038;BME280;23843;51.320;12.340;2023-04-01T05:31:16;98648.50;;;10.37;100.00
38038;BME280;23843;51.320;12.340;2023-04-01T05:33:41;98648.22;;;10.40;100.00
38038;BME280;23843;51.320;12.340;2023-04-01T05:36:08;98643.66;;;10.42;100.00
38038;BME280;23843;51.320;12.340;2023-04-01T05:38:35;98647.03;;;10.44;100.00
38038;BME280;23843;51.320;12.340;2023-04-01T05:41:02;98649.78;;;10.42;100.00
38038;BME280;23843;51.320;12.340;2023-04-01T05:43:28;98649.41;;;10.47;100.00
38038;BME280;23843;51.320;12.340;2023-04-01T05:45:53;98653.88;;;10.46;100.00
38038;BME280;23843;51.320;12.340;2023-04-01T05:48:19;98651.22;;;10.46;100.00
38038;BME280;23843;51.320;12.340;2023-04-01T05:50:44;98654.72;;;10.47;100.00
38038;BME280;23843;51.320;12.340;2023-04-01T05:53:09;98654.72;;;10.47;100.00
38038;BME280;23843;51.320;12.340;2023-04-01T05:55:36;98651.09;;;10.48;100.00
38038;BME280;23843;51.320;12.340;2023-04-01T05:58:02;98654.47;;;10.50;100.00
38038;BME280;23843;51.320;12.340;2023-04-01T06:00:27;98654.34;;;10.52;100.00
38038;BME280;23843;51.320;12.340;2023-04-01T06:02:53;98657.81;;;10.52;100.00
38038;BME280;23843;51.320;12.340;2023-04-01T06:05:21;98662.03;;;10.55;100.00
38038;BME280;23843;51.320;12.340;2023-04-01T06:07:47;98659.97;;;10.58;100.00
38038;BME280;23843;51.320;12.340;2023-04-01T06:10:15;98656.81;;;10.64;100.00
38038;BME280;23843;51.320;12.340;2023-04-01T06:12:58;98661.63;;;10.70;100.00
38038;BME280;23843;51.320;12.340;2023-04-01T06:15:36;98664.50;;;10.79;100.00
38038;BME280;23843;51.320;12.340;2023-04-01T06:21:17;98669.50;;;10.93;100.00
38038;BME280;23843;51.320;12.340;2023-04-01T06:23:54;98670.22;;;10.95;100.00
38038;BME280;23843;51.320;12.340;2023-04-01T06:26:30;98666.09;;;11.02;100.00
38038;BME280;23843;51.320;12.340;2023-04-01T06:32:27;98676.78;;;11.12;100.00
38038;BME280;23843;51.320;12.340;2023-04-01T06:35:15;98672.03;;;11.16;100.00
38038;BME280;23843;51.320;12.340;2023-04-01T06:38:09;98674.44;;;11.19;100.00
38038;BME280;23843;51.320;12.340;2023-04-01T06:40:48;98683.81;;;11.23;100.00
38038;BME280;23843;51.320;12.340;2023-04-01T06:43:21;98674.66;;;11.27;100.00
38038;BME280;23843;51.320;12.340;2023-04-01T06:45:56;98677.75;;;11.32;100.00
38038;BME280;23843;51.320;12.340;2023-04-01T06:48:37;98680.13;;;11.35;100.00
38038;BME280;23843;51.320;12.340;2023-04-01T06:51:16;98684.34;;;11.38;100.00
38038;BME280;23843;51.320;12.340;2023-04-01T06:53:48;98677.81;;;11.42;100.00
38038;BME280;23843;51.320;12.340;2023-04-01T06:56:25;98682.47;;;11.49;100.00
38038;BME280;23843;51.320;12.340;2023-04-01T06:59:04;98677.63;;;11.54;100.00
38038;BME280;23843;51.320;12.340;2023-04-01T07:01:34;98677.78;;;11.63;100.00
38038;BME280;23843;51.320;12.340;2023-04-01T07:04:06;98679.94;;;11.69;100.00
38038;BME280;23843;51.320;12.340;2023-04-01T07:06:36;98676.63;;;11.76;100.00
38038;BME280;23843;51.320;12.340;2023-04-01T07:09:06;98675.25;;;11.82;100.00
38038;BME280;23843;51.320;12.340;2023-04-01T07:11:36;98682.84;;;11.87;100.00
38038;BME280;23843;51.320;12.340;2023-04-01T07:14:04;98679.78;;;11.91;100.00
38038;BME280;23843;51.320;12.340;2023-04-01T07:16:39;98685.44;;;11.98;100.00
38038;BME280;23843;51.320;12.340;2023-04-01T07:19:11;98692.28;;;12.01;100.00
38038;BME280;23843;51.320;12.340;2023-04-01T07:21:41;98693.22;;;11.99;100.00
38038;BME280;23843;51.320;12.340;2023-04-01T07:24:13;98695.75;;;12.01;100.00
38038;BME280;23843;51.320;12.340;2023-04-01T07:26:41;98688.19;;;11.96;100.00
38038;BME280;23843;51.320;12.340;2023-04-01T07:29:09;98692.06;;;11.92;100.00
38038;BME280;23843;51.320;12.340;2023-04-01T07:32:00;98697.66;;;11.89;100.00
38038;BME280;23843;51.320;12.340;2023-04-01T07:34:36;98697.81;;;11.88;100.00
38038;BME280;23843;51.320;12.340;2023-04-01T07:37:07;98699.72;;;11.86;100.00
38038;BME280;23843;51.320;12.340;2023-04-01T07:39:40;98701.41;;;11.87;100.00
38038;BME280;23843;51.320;12.340;2023-04-01T07:42:16;98700.50;;;11.97;100.00
38038;BME280;23843;51.320;12.340;2023-04-01T07:44:49;98706.69;;;12.08;100.00
38038;BME280;23843;51.320;12.340;2023-04-01T07:47:45;98700.63;;;12.27;100.00
38038;BME280;23843;51.320;12.340;2023-04-01T07:50:22;98709.59;;;12.35;100.00
38038;BME280;23843;51.320;12.340;2023-04-01T07:52:59;98709.91;;;12.42;100.00
38038;BME280;23843;51.320;12.340;2023-04-01T07:55:31;98708.38;;;12.49;100.00
38038;BME280;23843;51.320;12.340;2023-04-01T07:58:06;98719.69;;;12.41;100.00
38038;BME280;23843;51.320;12.340;2023-04-01T08:00:43;98719.13;;;12.48;100.00
38038;BME280;23843;51.320;12.340;2023-04-01T08:03:16;98725.41;;;12.37;100.00
38038;BME280;23843;51.320;12.340;2023-04-01T08:05:53;98723.00;;;12.24;100.00
38038;BME280;23843;51.320;12.340;2023-04-01T08:08:27;98720.84;;;12.18;100.00
38038;BME280;23843;51.320;12.340;2023-04-01T08:11:05;98730.25;;;12.22;100.00
38038;BME280;23843;51.320;12.340;2023-04-01T08:13:39;98735.09;;;12.17;100.00
38038;BME280;23843;51.320;12.340;2023-04-01T08:16:16;98729.66;;;12.18;100.00
38038;BME280;23843;51.320;12.340;2023-04-01T08:18:48;98730.69;;;12.27;100.00
38038;BME280;23843;51.320;12.340;2023-04-01T08:21:21;98732.50;;;12.27;100.00
38038;BME280;23843;51.320;12.340;2023-04-01T08:23:51;98731.09;;;12.32;100.00
38038;BME280;23843;51.320;12.340;2023-04-01T08:26:26;98731.81;;;12.34;100.00
38038;BME280;23843;51.320;12.340;2023-04-01T08:28:56;98738.44;;;12.50;100.00
38038;BME280;23843;51.320;12.340;2023-04-01T08:31:25;98736.22;;;12.55;100.00
38038;BME280;23843;51.320;12.340;2023-04-01T08:33:55;98744.09;;;12.66;100.00
38038;BME280;23843;51.320;12.340;2023-04-01T08:36:24;98741.56;;;12.64;100.00
38038;BME280;23843;51.320;12.340;2023-04-01T08:38:55;98743.00;;;12.78;100.00
38038;BME280;23843;51.320;12.340;2023-04-01T08:42:00;98741.91;;;12.91;100.00
38038;BME280;23843;51.320;12.340;2023-04-01T08:44:43;98741.63;;;12.94;100.00
38038;BME280;23843;51.320;12.340;2023-04-01T08:50:26;98748.09;;;13.20;100.00
38038;BME280;23843;51.320;12.340;2023-04-01T08:53:00;98743.09;;;13.46;100.00
38038;BME280;23843;51.320;12.340;2023-04-01T08:55:37;98747.69;;;13.54;100.00
38038;BME280;23843;51.320;12.340;2023-04-01T08:58:30;98736.22;;;13.63;100.00
38038;BME280;23843;51.320;12.340;2023-04-01T09:01:10;98746.72;;;13.55;100.00
38038;BME280;23843;51.320;12.340;2023-04-01T09:03:47;98735.50;;;13.71;100.00
38038;BME280;23843;51.320;12.340;2023-04-01T09:06:40;98734.81;;;13.59;100.00
38038;BME280;23843;51.320;12.340;2023-04-01T09:12:23;98732.41;;;13.76;100.00
38038;BME280;23843;51.320;12.340;2023-04-01T09:15:25;98726.91;;;13.87;100.00
38038;BME280;23843;51.320;12.340;2023-04-01T09:18:20;98737.16;;;13.82;100.00
38038;BME280;23843;51.320;12.340;2023-04-01T09:21:02;98737.59;;;13.67;100.00
38038;BME280;23843;51.320;12.340;2023-04-01T09:23:41;98733.41;;;13.65;100.00
38038;BME280;23843;51.320;12.340;2023-04-01T09:26:30;98739.97;;;13.80;100.00
38038;BME280;23843;51.320;12.340;2023-04-01T09:29:13;98743.69;;;13.97;100.00
38038;BME280;23843;51.320;12.340;2023-04-01T09:32:00;98746.94;;;13.91;100.00
38038;BME280;23843;51.320;12.340;2023-04-01T09:34:54;98750.44;;;13.91;100.00
38038;BME280;23843;51.320;12.340;2023-04-01T09:37:41;98744.44;;;13.80;100.00
38038;BME280;23843;51.320;12.340;2023-04-01T09:40:17;98749.91;;;13.78;100.00
38038;BME280;23843;51.320;12.340;2023-04-01T09:43:02;98750.72;;;13.88;100.00
38038;BME280;23843;51.320;12.340;2023-04-01T09:45:47;98744.78;;;14.04;100.00
38038;BME280;23843;51.320;12.340;2023-04-01T09:48:41;98743.50;;;14.18;100.00
38038;BME280;23843;51.320;12.340;2023-04-01T09:51:23;98750.78;;;14.16;100.00
38038;BME280;23843;51.320;12.340;2023-04-01T09:54:04;98752.06;;;14.22;100.00
38038;BME280;23843;51.320;12.340;2023-04-01T09:57:03;98753.47;;;14.06;100.00
38038;BME280;23843;51.320;12.340;2023-04-01T09:59:59;98748.31;;;14.05;100.00
38038;BME280;23843;51.320;12.340;2023-04-01T10:03:05;98753.50;;;13.97;100.00
38038;BME280;23843;51.320;12.340;2023-04-01T10:05:54;98748.91;;;13.89;100.00
38038;BME280;23843;51.320;12.340;2023-04-01T10:08:44;98751.19;;;13.74;100.00
38038;BME280;23843;51.320;12.340;2023-04-01T10:17:19;98753.72;;;13.56;100.00
38038;BME280;23843;51.320;12.340;2023-04-01T10:20:18;98758.75;;;13.59;100.00
38038;BME280;23843;51.320;12.340;2023-04-01T10:29:02;98755.31;;;14.06;100.00
38038;BME280;23843;51.320;12.340;2023-04-01T10:31:43;98751.09;;;14.13;100.00
38038;BME280;23843;51.320;12.340;2023-04-01T10:37:34;98753.22;;;14.09;100.00
38038;BME280;23843;51.320;12.340;2023-04-01T10:43:43;98759.59;;;13.60;99.62
38038;BME280;23843;51.320;12.340;2023-04-01T10:49:35;98765.34;;;13.36;100.00
38038;BME280;23843;51.320;12.340;2023-04-01T10:52:30;98759.88;;;13.37;100.00
38038;BME280;23843;51.320;12.340;2023-04-01T10:55:19;98756.81;;;13.42;100.00
38038;BME280;23843;51.320;12.340;2023-04-01T11:01:16;98755.09;;;13.70;96.47
38038;BME280;23843;51.320;12.340;2023-04-01T11:13:49;98754.06;;;14.00;96.53
38038;BME280;23843;51.320;12.340;2023-04-01T11:16:55;98752.53;;;13.98;95.67
38038;BME280;23843;51.320;12.340;2023-04-01T11:19:49;98759.41;;;13.90;94.05
38038;BME280;23843;51.320;12.340;2023-04-01T11:22:38;98756.88;;;13.99;97.09
38038;BME280;23843;51.320;12.340;2023-04-01T11:25:38;98758.94;;;14.15;100.00
38038;BME280;23843;51.320;12.340;2023-04-01T11:31:31;98760.50;;;14.45;99.35
38038;BME280;23843;51.320;12.340;2023-04-01T11:34:05;98765.41;;;14.49;99.25
38038;BME280;23843;51.320;12.340;2023-04-01T11:36:43;98769.03;;;14.58;97.41
38038;BME280;23843;51.320;12.340;2023-04-01T11:39:18;98765.69;;;14.56;95.06
38038;BME280;23843;51.320;12.340;2023-04-01T11:41:51;98766.91;;;14.62;96.14
38038;BME280;23843;51.320;12.340;2023-04-01T11:44:23;98767.22;;;14.59;96.09
38038;BME280;23843;51.320;12.340;2023-04-01T11:47:03;98771.44;;;14.51;93.07
38038;BME280;23843;51.320;12.340;2023-04-01T11:49:59;98779.16;;;14.54;95.81
38038;BME280;23843;51.320;12.340;2023-04-01T11:55:35;98786.84;;;14.10;100.00
38038;BME280;23843;51.320;12.340;2023-04-01T11:58:15;98784.72;;;14.04;100.00
38038;BME280;23843;51.320;12.340;2023-04-01T12:01:12;98787.25;;;14.06;100.00
38038;BME280;23843;51.320;12.340;2023-04-01T12:04:04;98780.94;;;14.07;100.00
38038;BME280;23843;51.320;12.340;2023-04-01T12:06:43;98787.56;;;14.03;100.00
38038;BME280;23843;51.320;12.340;2023-04-01T12:09:18;98786.88;;;13.91;100.00
38038;BME280;23843;51.320;12.340;2023-04-01T12:11:52;98794.75;;;13.83;100.00
38038;BME280;23843;51.320;12.340;2023-04-01T12:14:32;98793.34;;;13.79;100.00
38038;BME280;23843;51.320;12.340;2023-04-01T12:17:04;98797.41;;;13.73;100.00
38038;BME280;23843;51.320;12.340;2023-04-01T12:19:43;98803.84;;;13.70;100.00
38038;BME280;23843;51.320;12.340;2023-04-01T12:22:30;98808.47;;;13.59;100.00
38038;BME280;23843;51.320;12.340;2023-04-01T12:25:11;98806.94;;;13.56;100.00
38038;BME280;23843;51.320;12.340;2023-04-01T12:27:47;98810.72;;;13.54;100.00
38038;BME280;23843;51.320;12.340;2023-04-01T12:30:35;98813.91;;;13.47;100.00
38038;BME280;23843;51.320;12.340;2023-04-01T12:33:23;98811.69;;;13.43;100.00
38038;BME280;23843;51.320;12.340;2023-04-01T12:36:03;98811.69;;;13.43;100.00
38038;BME280;23843;51.320;12.340;2023-04-01T12:38:42;98807.47;;;13.31;100.00
38038;BME280;23843;51.320;12.340;2023-04-01T12:41:14;98811.53;;;13.35;100.00
38038;BME280;23843;51.320;12.340;2023-04-01T12:43:59;98820.06;;;13.28;100.00
38038;BME280;23843;51.320;12.340;2023-04-01T12:46:32;98824.25;;;13.31;100.00
38038;BME280;23843;51.320;12.340;2023-04-01T12:49:51;98817.56;;;13.46;100.00
38038;BME280;23843;51.320;12.340;2023-04-01T12:52:25;98823.16;;;13.53;100.00
38038;BME280;23843;51.320;12.340;2023-04-01T12:55:15;98830.47;;;13.51;100.00
38038;BME280;23843;51.320;12.340;2023-04-01T13:01:19;98831.59;;;13.48;100.00
38038;BME280;23843;51.320;12.340;2023-04-01T13:04:19;98832.97;;;13.43;100.00
38038;BME280;23843;51.320;12.340;2023-04-01T13:06:56;98836.22;;;13.56;100.00
38038;BME280;23843;51.320;12.340;2023-04-01T13:09:36;98829.06;;;13.66;100.00
38038;BME280;23843;51.320;12.340;2023-04-01T13:12:26;98837.75;;;13.68;100.00
38038;BME280;23843;51.320;12.340;2023-04-01T13:17:50;98837.47;;;13.72;100.00
38038;BME280;23843;51.320;12.340;2023-04-01T13:20:28;98834.94;;;13.70;100.00
38038;BME280;23843;51.320;12.340;2023-04-01T13:23:07;98843.19;;;13.67;100.00
38038;BME280;23843;51.320;12.340;2023-04-01T13:25:41;98853.72;;;13.68;100.00
38038;BME280;23843;51.320;12.340;2023-04-01T13:28:15;98846.69;;;13.67;100.00
38038;BME280;23843;51.320;12.340;2023-04-01T13:33:17;98852.44;;;13.82;100.00
38038;BME280;23843;51.320;12.340;2023-04-01T13:35:52;98851.75;;;13.80;100.00
38038;BME280;23843;51.320;12.340;2023-04-01T13:38:43;98851.91;;;13.79;100.00
38038;BME280;23843;51.320;12.340;2023-04-01T13:41:21;98848.53;;;13.77;100.00
38038;BME280;23843;51.320;12.340;2023-04-01T13:43:57;98852.88;;;13.78;100.00
38038;BME280;23843;51.320;12.340;2023-04-01T13:46:35;98861.41;;;13.72;100.00
38038;BME280;23843;51.320;12.340;2023-04-01T13:52:25;98863.06;;;13.53;100.00
38038;BME280;23843;51.320;12.340;2023-04-01T13:55:06;98859.16;;;13.47;100.00
38038;BME280;23843;51.320;12.340;2023-04-01T13:57:56;98854.41;;;13.41;100.00
38038;BME280;23843;51.320;12.340;2023-04-01T14:00:36;98855.94;;;13.44;100.00
38038;BME280;23843;51.320;12.340;2023-04-01T14:03:18;98859.56;;;13.43;100.00
38038;BME280;23843;51.320;12.340;2023-04-01T14:08:53;98861.25;;;13.44;100.00
38038;BME280;23843;51.320;12.340;2023-04-01T14:11:26;98860.56;;;13.42;100.00
38038;BME280;23843;51.320;12.340;2023-04-01T14:14:05;98858.59;;;13.44;100.00
38038;BME280;23843;51.320;12.340;2023-04-01T14:16:58;98861.78;;;13.38;100.00
38038;BME280;23843;51.320;12.340;2023-04-01T14:19:46;98865.03;;;13.41;100.00
38038;BME280;23843;51.320;12.340;2023-04-01T14:22:25;98865.16;;;13.40;100.00
38038;BME280;23843;51.320;12.340;2023-04-01T14:25:18;98871.72;;;13.36;100.00
38038;BME280;23843;51.320;12.340;2023-04-01T14:27:56;98867.94;;;13.28;100.00
38038;BME280;23843;51.320;12.340;2023-04-01T14:30:42;98866.97;;;13.30;100.00
38038;BME280;23843;51.320;12.340;2023-04-01T14:33:21;98873.00;;;13.32;100.00
38038;BME280;23843;51.320;12.340;2023-04-01T14:35:57;98873.97;;;13.31;100.00
38038;BME280;23843;51.320;12.340;2023-04-01T14:38:34;98874.38;;;13.36;100.00
38038;BME280;23843;51.320;12.340;2023-04-01T14:41:06;98874.97;;;13.39;100.00
38038;BME280;23843;51.320;12.340;2023-04-01T14:43:54;98878.47;;;13.40;100.00
38038;BME280;23843;51.320;12.340;2023-04-01T14:46:34;98886.03;;;13.44;100.00
38038;BME280;23843;51.320;12.340;2023-04-01T14:49:15;98882.78;;;13.41;100.00
38038;BME280;23843;51.320;12.340;2023-04-01T14:51:43;98888.09;;;13.41;100.00
38038;BME280;23843;51.320;12.340;2023-04-01T14:54:13;98889.50;;;13.35;100.00
38038;BME280;23843;51.320;12.340;2023-04-01T14:56:42;98890.63;;;13.33;100.00
38038;BME280;23843;51.320;12.340;2023-04-01T14:59:13;98892.94;;;13.26;100.00
38038;BME280;23843;51.320;12.340;2023-04-01T15:01:47;98891.69;;;13.20;100.00
38038;BME280;23843;51.320;12.340;2023-04-01T15:07:20;98893.91;;;13.15;100.00
38038;BME280;23843;51.320;12.340;2023-04-01T15:09:54;98888.47;;;13.17;100.00
38038;BME280;23843;51.320;12.340;2023-04-01T15:12:26;98893.63;;;13.18;100.00
38038;BME280;23843;51.320;12.340;2023-04-01T15:15:04;98894.91;;;13.24;100.00
38038;BME280;23843;51.320;12.340;2023-04-01T15:17:45;98899.66;;;13.20;100.00
38038;BME280;23843;51.320;12.340;2023-04-01T15:20:25;98900.75;;;13.08;100.00
38038;BME280;23843;51.320;12.340;2023-04-01T15:23:08;98892.31;;;13.03;100.00
38038;BME280;23843;51.320;12.340;2023-04-01T15:25:47;98899.50;;;12.81;100.00
38038;BME280;23843;51.320;12.340;2023-04-01T15:28:24;98906.97;;;12.88;100.00
38038;BME280;23843;51.320;12.340;2023-04-01T15:30:55;98902.09;;;12.93;100.00
38038;BME280;23843;51.320;12.340;2023-04-01T15:33:37;98902.38;;;12.99;100.00
38038;BME280;23843;51.320;12.340;2023-04-01T15:36:19;98903.34;;;12.98;100.00
38038;BME280;23843;51.320;12.340;2023-04-01T15:38:50;98900.63;;;12.79;100.00
38038;BME280;23843;51.320;12.340;2023-04-01T15:41:22;98911.25;;;12.58;100.00
38038;BME280;23843;51.320;12.340;2023-04-01T15:43:50;98913.41;;;12.64;100.00
38038;BME280;23843;51.320;12.340;2023-04-01T15:49:10;98913.97;;;12.68;100.00
38038;BME280;23843;51.320;12.340;2023-04-01T15:51:43;98906.88;;;12.68;100.00
38038;BME280;23843;51.320;12.340;2023-04-01T15:54:26;98919.03;;;12.71;100.00
38038;BME280;23843;51.320;12.340;2023-04-01T15:57:02;98923.97;;;12.75;100.00
38038;BME280;23843;51.320;12.340;2023-04-01T15:59:51;98922.19;;;12.85;100.00
38038;BME280;23843;51.320;12.340;2023-04-01T16:02:22;98927.66;;;12.63;100.00
38038;BME280;23843;51.320;12.340;2023-04-01T16:04:57;98930.91;;;12.46;100.00
38038;BME280;23843;51.320;12.340;2023-04-01T16:07:42;98928.56;;;12.31;100.00
38038;BME280;23843;51.320;12.340;2023-04-01T16:10:26;98940.69;;;12.24;100.00
38038;BME280;23843;51.320;12.340;2023-04-01T16:13:04;98939.00;;;12.23;100.00
38038;BME280;23843;51.320;12.340;2023-04-01T16:15:40;98938.25;;;12.00;100.00
38038;BME280;23843;51.320;12.340;2023-04-01T16:18:18;98945.88;;;11.93;100.00
38038;BME280;23843;51.320;12.340;2023-04-01T16:20:51;98943.22;;;11.93;100.00
38038;BME280;23843;51.320;12.340;2023-04-01T16:23:24;98946.84;;;11.92;100.00
38038;BME280;23843;51.320;12.340;2023-04-01T16:25:56;98953.59;;;11.96;100.00
38038;BME280;23843;51.320;12.340;2023-04-01T16:28:25;98948.88;;;12.00;100.00
38038;BME280;23843;51.320;12.340;2023-04-01T16:30:57;98958.88;;;11.96;100.00
38038;BME280;23843;51.320;12.340;2023-04-01T16:33:32;98959.03;;;11.84;100.00
38038;BME280;23843;51.320;12.340;2023-04-01T16:36:10;98964.44;;;11.82;100.00
38038;BME280;23843;51.320;12.340;2023-04-01T16:38:41;98972.19;;;11.85;100.00
38038;BME280;23843;51.320;12.340;2023-04-01T16:41:14;98987.38;;;11.94;100.00
38038;BME280;23843;51.320;12.340;2023-04-01T16:43:43;98987.81;;;11.99;100.00
38038;BME280;23843;51.320;12.340;2023-04-01T16:46:26;98990.47;;;11.99;100.00
38038;BME280;23843;51.320;12.340;2023-04-01T16:51:57;98995.00;;;11.88;100.00
38038;BME280;23843;51.320;12.340;2023-04-01T16:54:30;98988.94;;;11.86;100.00
38038;BME280;23843;51.320;12.340;2023-04-01T16:57:14;98997.66;;;11.88;100.00
38038;BME280;23843;51.320;12.340;2023-04-01T16:59:46;99004.16;;;11.95;100.00
38038;BME280;23843;51.320;12.340;2023-04-01T17:02:14;99003.06;;;11.97;100.00
38038;BME280;23843;51.320;12.340;2023-04-01T17:04:44;99009.47;;;11.95;100.00
38038;BME280;23843;51.320;12.340;2023-04-01T17:07:31;99009.69;;;11.92;100.00
38038;BME280;23843;51.320;12.340;2023-04-01T17:10:18;99018.25;;;11.84;100.00
38038;BME280;23843;51.320;12.340;2023-04-01T17:13:03;99017.19;;;11.75;100.00
38038;BME280;23843;51.320;12.340;2023-04-01T17:15:35;99024.53;;;11.72;100.00
38038;BME280;23843;51.320;12.340;2023-04-01T17:18:07;99025.97;;;11.76;100.00
38038;BME280;23843;51.320;12.340;2023-04-01T17:20:42;99021.41;;;11.78;100.00
38038;BME280;23843;51.320;12.340;2023-04-01T17:23:19;99029.59;;;11.75;100.00
38038;BME280;23843;51.320;12.340;2023-04-01T17:25:54;99036.84;;;11.73;100.00
38038;BME280;23843;51.320;12.340;2023-04-01T17:28:35;99038.06;;;11.69;100.00
38038;BME280;23843;51.320;12.340;2023-04-01T17:31:08;99040.09;;;11.65;100.00
38038;BME280;23843;51.320;12.340;2023-04-01T17:33:59;99043.97;;;11.61;100.00
38038;BME280;23843;51.320;12.340;2023-04-01T17:36:45;99048.66;;;11.57;100.00
38038;BME280;23843;51.320;12.340;2023-04-01T17:39:29;99045.41;;;11.54;100.00
38038;BME280;23843;51.320;12.340;2023-04-01T17:42:04;99049.25;;;11.50;100.00
38038;BME280;23843;51.320;12.340;2023-04-01T17:44:39;99053.84;;;11.48;100.00
38038;BME280;23843;51.320;12.340;2023-04-01T17:47:39;99061.94;;;11.46;100.00
38038;BME280;23843;51.320;12.340;2023-04-01T17:50:20;99070.25;;;11.42;100.00
38038;BME280;23843;51.320;12.340;2023-04-01T17:52:51;99074.22;;;11.47;100.00
38038;BME280;23843;51.320;12.340;2023-04-01T17:55:41;99074.81;;;11.51;100.00
38038;BME280;23843;51.320;12.340;2023-04-01T17:58:17;99088.47;;;11.46;100.00
38038;BME280;23843;51.320;12.340;2023-04-01T18:00:51;99089.66;;;11.42;100.00
38038;BME280;23843;51.320;12.340;2023-04-01T18:03:37;99098.66;;;11.28;100.00
38038;BME280;23843;51.320;12.340;2023-04-01T18:06:12;99101.94;;;11.32;100.00
38038;BME280;23843;51.320;12.340;2023-04-01T18:08:54;99103.63;;;11.22;100.00
38038;BME280;23843;51.320;12.340;2023-04-01T18:11:32;99101.41;;;11.16;100.00
38038;BME280;23843;51.320;12.340;2023-04-01T18:14:23;99114.56;;;11.17;100.00
38038;BME280;23843;51.320;12.340;2023-04-01T18:17:01;99117.78;;;11.09;100.00
38038;BME280;23843;51.320;12.340;2023-04-01T18:19:37;99117.28;;;11.04;100.00
38038;BME280;23843;51.320;12.340;2023-04-01T18:22:17;99119.00;;;11.05;100.00
38038;BME280;23843;51.320;12.340;2023-04-01T18:24:45;99115.25;;;11.08;100.00
38038;BME280;23843;51.320;12.340;2023-04-01T18:27:21;99128.22;;;11.00;100.00
38038;BME280;23843;51.320;12.340;2023-04-01T18:29:51;99132.94;;;10.96;100.00
38038;BME280;23843;51.320;12.340;2023-04-01T18:32:26;99138.00;;;10.99;100.00
38038;BME280;23843;51.320;12.340;2023-04-01T18:34:58;99147.16;;;10.95;100.00
38038;BME280;23843;51.320;12.340;2023-04-01T18:37:28;99138.00;;;10.99;100.00
38038;BME280;23843;51.320;12.340;2023-04-01T18:39:58;99149.66;;;10.97;100.00
38038;BME280;23843;51.320;12.340;2023-04-01T18:42:36;99157.59;;;10.85;100.00
38038;BME280;23843;51.320;12.340;2023-04-01T18:45:17;99162.16;;;10.83;100.00
38038;BME280;23843;51.320;12.340;2023-04-01T18:47:48;99155.03;;;10.84;100.00
38038;BME280;23843;51.320;12.340;2023-04-01T18:50:22;99163.31;;;10.79;100.00
38038;BME280;23843;51.320;12.340;2023-04-01T18:52:48;99165.88;;;10.81;100.00
38038;BME280;23843;51.320;12.340;2023-04-01T18:55:34;99170.53;;;10.77;100.00
38038;BME280;23843;51.320;12.340;2023-04-01T18:58:14;99167.69;;;10.80;100.00
38038;BME280;23843;51.320;12.340;2023-04-01T19:00:47;99178.38;;;10.79;100.00
38038;BME280;23843;51.320;12.340;2023-04-01T19:03:20;99180.28;;;10.77;100.00
38038;BME280;23843;51.320;12.340;2023-04-01T19:05:49;99181.13;;;10.77;100.00
38038;BME280;23843;51.320;12.340;2023-04-01T19:08:26;99189.22;;;10.76;100.00
38038;BME280;23843;51.320;12.340;2023-04-01T19:11:00;99196.66;;;10.70;100.00
38038;BME280;23843;51.320;12.340;2023-04-01T19:13:37;99195.19;;;10.66;100.00
38038;BME280;23843;51.320;12.340;2023-04-01T19:16:10;99200.34;;;10.68;100.00
38038;BME280;23843;51.320;12.340;2023-04-01T19:19:02;99205.25;;;10.61;100.00